Time;durP1;ratioP1;P1;durP2;ratioP2;P2;SDS_P1;SDS_P2;PMS_P1;PMS_P2;Temp;Humidity;BMP_temperature;BMP_pressure;BME280_temperature;BME280_humidity;BME280_pressure;Samples;Min_cycle;Max_cycle;Signal;HPM_P1;HPM_P2
2022/05/18 00:00:51;;;;;;;0.00;0.00;;;19.40;99.90;;;;;;4989989;28;20466;-65
2022/05/18 00:03:22;;;;;;;0.00;0.00;;;19.20;99.90;;;;;;4989984;28;20085;-65
2022/05/18 00:05:49;;;;;;;0.20;0.20;;;19.30;99.90;;;;;;4991454;28;20126;-65
2022/05/18 00:08:15;;;;;;;0.00;0.00;;;19.30;99.90;;;;;;4989886;28;20034;-65
2022/05/18 00:10:48;;;;;;;0.17;0.17;;;19.20;99.90;;;;;;4989572;28;20084;-65
2022/05/18 00:13:15;;;;;;;0.10;0.10;;;19.30;99.90;;;;;;4989826;28;20031;-65
2022/05/18 00:15:42;;;;;;;0.10;0.10;;;19.30;99.90;;;;;;4990005;28;20058;-65
2022/05/18 00:18:08;;;;;;;0.00;0.00;;;19.20;99.90;;;;;;4991348;28;20061;-65
2022/05/18 00:20:34;;;;;;;9.50;0.75;;;19.00;99.90;;;;;;4991003;28;20447;-65
2022/05/18 00:23:04;;;;;;;0.00;0.00;;;19.10;99.90;;;;;;4990976;28;20096;-65
2022/05/18 00:25:33;;;;;;;0.43;0.33;;;19.10;99.90;;;;;;4989787;28;20053;-65
2022/05/18 00:28:00;;;;;;;0.30;0.20;;;19.10;99.90;;;;;;4990827;28;20072;-65
2022/05/18 00:30:28;;;;;;;0.03;0.03;;;19.00;99.90;;;;;;4989450;28;20106;-65
2022/05/18 00:32:55;;;;;;;0.00;0.00;;;18.70;99.90;;;;;;4990647;28;20041;-65
2022/05/18 00:35:22;;;;;;;0.30;0.30;;;18.50;99.90;;;;;;4989505;28;20031;-66
2022/05/18 00:37:48;;;;;;;0.47;0.40;;;18.40;99.90;;;;;;4990988;28;20061;-66
2022/05/18 00:40:18;;;;;;;1.30;0.60;;;18.40;99.90;;;;;;4990684;28;20018;-66
2022/05/18 00:42:44;;;;;;;0.77;0.35;;;18.40;99.90;;;;;;4989763;28;20038;-66
2022/05/18 00:45:11;;;;;;;0.70;0.25;;;18.50;99.90;;;;;;4991010;28;20038;-66
2022/05/18 00:47:37;;;;;;;0.30;0.30;;;18.40;99.90;;;;;;4990979;28;20482;-66
2022/05/18 00:50:19;;;;;;;0.20;0.20;;;18.50;99.90;;;;;;4989440;28;20038;-66
2022/05/18 00:53:14;;;;;;;0.35;0.35;;;18.30;99.90;;;;;;4989546;28;20080;-66
2022/05/18 00:55:44;;;;;;;0.00;0.00;;;18.50;99.90;;;;;;4989292;28;20110;-66
2022/05/18 00:58:37;;;;;;;0.00;0.00;;;18.50;99.90;;;;;;4989538;28;20034;-66
2022/05/18 01:01:03;;;;;;;0.00;0.00;;;18.50;99.90;;;;;;4990972;28;20484;-66
2022/05/18 01:03:35;;;;;;;2.78;1.75;;;18.50;99.90;;;;;;4990527;28;20524;-66
2022/05/18 01:06:28;;;;;;;1.65;1.23;;;18.60;99.90;;;;;;4966346;28;20081;-66
2022/05/18 01:09:05;;;;;;;0.10;0.10;;;18.70;99.90;;;;;;4991561;28;20512;-66
2022/05/18 01:11:35;;;;;;;0.00;0.00;;;18.70;99.90;;;;;;4983953;28;20042;-66
2022/05/18 01:14:03;;;;;;;0.07;0.07;;;18.50;99.90;;;;;;4975123;28;20034;-66
2022/05/18 01:16:29;;;;;;;3.75;1.25;;;18.20;99.90;;;;;;4984983;28;20031;-66
2022/05/18 01:18:57;;;;;;;0.00;0.00;;;18.30;99.90;;;;;;4989666;28;20158;-66
2022/05/18 01:21:36;;;;;;;0.00;0.00;;;17.80;99.90;;;;;;4989775;28;20034;-65
2022/05/18 01:24:21;;;;;;;0.85;0.57;;;17.90;99.90;;;;;;4991418;28;20058;-66
2022/05/18 01:26:48;;;;;;;2.88;0.55;;;18.00;99.90;;;;;;4973503;28;20502;-66
2022/05/18 01:29:19;;;;;;;0.00;0.00;;;18.10;99.90;;;;;;4989450;28;20035;-65
2022/05/18 01:31:51;;;;;;;0.35;0.32;;;17.80;99.90;;;;;;4973609;28;20081;-66
2022/05/18 01:34:22;;;;;;;0.28;0.20;;;17.40;99.90;;;;;;4974519;28;20033;-66
2022/05/18 01:36:49;;;;;;;0.05;0.05;;;17.20;99.90;;;;;;4974455;28;20030;-66
2022/05/18 01:39:24;;;;;;;0.00;0.00;;;17.40;99.90;;;;;;4973877;28;20066;-66
2022/05/18 01:42:17;;;;;;;0.13;0.10;;;17.20;99.90;;;;;;4986380;28;20093;-66
2022/05/18 01:44:43;;;;;;;0.00;0.00;;;17.30;99.90;;;;;;5008821;28;20120;-66
2022/05/18 01:47:09;;;;;;;0.55;0.55;;;17.40;99.90;;;;;;4993821;28;20077;-66
2022/05/18 01:49:39;;;;;;;0.00;0.00;;;17.40;99.90;;;;;;4993766;28;20417;-66
2022/05/18 01:52:06;;;;;;;0.10;0.10;;;17.50;99.90;;;;;;4992226;28;20033;-66
2022/05/18 01:54:42;;;;;;;0.00;0.00;;;17.50;99.90;;;;;;4992286;28;20402;-66
2022/05/18 01:57:08;;;;;;;0.00;0.00;;;17.60;99.90;;;;;;4992652;28;20042;-66
2022/05/18 01:59:36;;;;;;;0.10;0.10;;;17.70;99.90;;;;;;4992059;28;20058;-66
2022/05/18 02:02:06;;;;;;;0.00;0.00;;;18.00;99.90;;;;;;4992192;28;20027;-66
2022/05/18 02:04:33;;;;;;;0.10;0.10;;;18.10;99.90;;;;;;4993157;28;20122;-66
2022/05/18 02:07:00;;;;;;;2.55;0.80;;;18.30;99.90;;;;;;4993390;28;20042;-65
2022/05/18 02:09:27;;;;;;;1.90;1.17;;;18.50;99.90;;;;;;4993043;28;20034;-66
2022/05/18 02:11:54;;;;;;;0.10;0.05;;;18.70;99.90;;;;;;5011795;23;20046;-73
2022/05/18 02:14:21;;;;;;;1.88;0.32;;;18.90;99.90;;;;;;4999291;28;20490;-73
2022/05/18 02:16:47;;;;;;;0.10;0.10;;;18.90;99.90;;;;;;4992593;28;20478;-73
2022/05/18 02:19:13;;;;;;;0.57;0.32;;;18.60;99.90;;;;;;4992356;28;20049;-73
2022/05/18 02:21:39;;;;;;;0.08;0.08;;;18.50;99.90;;;;;;4980889;28;20031;-72
2022/05/18 02:24:05;;;;;;;0.00;0.00;;;18.50;99.90;;;;;;4972527;28;20038;-72
2022/05/18 02:26:31;;;;;;;0.00;0.00;;;17.90;99.90;;;;;;4973430;28;20518;-72
2022/05/18 02:28:57;;;;;;;0.60;0.57;;;18.10;99.90;;;;;;4973061;28;20106;-72
2022/05/18 02:31:23;;;;;;;0.20;0.20;;;18.20;99.90;;;;;;4972082;28;20113;-72
2022/05/18 02:33:49;;;;;;;0.00;0.00;;;18.20;99.90;;;;;;4973313;28;20069;-72
2022/05/18 02:36:15;;;;;;;0.13;0.13;;;18.30;99.90;;;;;;4973511;28;20622;-72
2022/05/18 02:38:42;;;;;;;0.22;0.22;;;18.40;99.90;;;;;;4971859;28;20046;-72
2022/05/18 02:41:08;;;;;;;0.08;0.08;;;18.20;99.90;;;;;;4972115;28;20084;-72
2022/05/18 02:43:38;;;;;;;0.20;0.20;;;18.20;99.90;;;;;;4971721;28;20035;-72
2022/05/18 02:46:09;;;;;;;0.10;0.10;;;18.20;99.90;;;;;;4972185;28;20034;-72
2022/05/18 02:48:36;;;;;;;0.00;0.00;;;18.10;99.90;;;;;;4955768;28;20157;-72
2022/05/18 02:51:04;;;;;;;0.93;0.88;;;18.00;99.90;;;;;;4971670;28;20466;-72
2022/05/18 02:53:30;;;;;;;0.98;0.60;;;18.00;99.90;;;;;;4971781;28;20031;-71
2022/05/18 02:56:08;;;;;;;0.00;0.00;;;17.70;99.90;;;;;;4973169;28;20387;-72
2022/05/18 02:58:42;;;;;;;0.10;0.10;;;17.60;99.90;;;;;;4973254;28;20077;-72
2022/05/18 03:01:16;;;;;;;3.63;0.80;;;17.60;99.90;;;;;;4973384;28;20031;-72
2022/05/18 03:03:41;;;;;;;5.93;1.55;;;17.50;99.90;;;;;;4971892;28;20498;-72
2022/05/18 03:06:10;;;;;;;0.00;0.00;;;17.50;99.90;;;;;;4971940;28;20134;-72
2022/05/18 03:08:41;;;;;;;0.30;0.30;;;17.50;99.90;;;;;;4971138;28;20070;-72
2022/05/18 03:11:08;;;;;;;4.22;1.13;;;17.50;99.90;;;;;;4972315;28;20038;-73
2022/05/18 03:13:35;;;;;;;0.00;0.00;;;17.20;99.90;;;;;;4971437;28;20514;-72
2022/05/18 03:16:02;;;;;;;0.50;0.28;;;17.30;99.90;;;;;;4952139;29;20023;-73
2022/05/18 03:18:28;;;;;;;0.68;0.68;;;17.30;99.90;;;;;;4952046;29;20121;-72
2022/05/18 03:23:40;;;;;;;0.52;0.52;;;17.20;99.90;;;;;;4953119;29;20026;-72
2022/05/18 03:26:20;;;;;;;0.00;0.00;;;17.30;99.90;;;;;;4952030;29;20535;-73
2022/05/18 03:28:49;;;;;;;0.17;0.17;;;17.30;99.90;;;;;;4951615;28;20035;-73
2022/05/18 03:31:16;;;;;;;0.75;0.47;;;17.40;99.90;;;;;;4951457;29;20035;-72
2022/05/18 03:33:43;;;;;;;0.28;0.20;;;17.40;99.90;;;;;;4951701;29;20502;-72
2022/05/18 03:36:12;;;;;;;1.55;0.50;;;17.40;99.90;;;;;;4951723;29;20508;-73
2022/05/18 03:38:39;;;;;;;0.00;0.00;;;17.30;99.90;;;;;;4951439;29;20143;-72
2022/05/18 03:41:05;;;;;;;0.38;0.25;;;17.30;99.90;;;;;;4951743;29;20451;-72
2022/05/18 03:43:31;;;;;;;0.25;0.25;;;17.30;99.90;;;;;;4952915;29;20037;-72
2022/05/18 03:46:00;;;;;;;0.15;0.15;;;17.30;99.90;;;;;;4953224;29;20039;-72
2022/05/18 03:48:26;;;;;;;0.20;0.20;;;17.30;99.90;;;;;;4951842;29;20027;-73
2022/05/18 03:50:57;;;;;;;0.05;0.05;;;17.30;99.90;;;;;;4951667;28;20023;-73
2022/05/18 03:53:24;;;;;;;0.10;0.10;;;17.30;99.90;;;;;;4951446;29;20484;-73
2022/05/18 03:55:50;;;;;;;0.13;0.13;;;17.30;99.90;;;;;;4951594;29;20038;-72
2022/05/18 03:58:16;;;;;;;0.00;0.00;;;17.30;99.90;;;;;;4951533;29;20035;-73
2022/05/18 04:00:45;;;;;;;0.00;0.00;;;17.30;99.90;;;;;;4934686;28;20042;-74
2022/05/18 04:03:13;;;;;;;0.95;0.90;;;17.30;99.90;;;;;;4951535;29;20081;-73
2022/05/18 04:05:40;;;;;;;0.10;0.10;;;17.30;99.90;;;;;;4959046;28;20137;-72
2022/05/18 04:08:09;;;;;;;0.57;0.57;;;17.30;99.90;;;;;;4971095;28;20543;-72
2022/05/18 04:10:38;;;;;;;0.30;0.25;;;17.30;99.90;;;;;;4953879;28;20038;-72
2022/05/18 04:13:11;;;;;;;2.47;0.52;;;17.30;99.90;;;;;;4969438;28;20035;-70
2022/05/18 04:15:40;;;;;;;0.38;0.38;;;17.30;99.90;;;;;;4984676;28;20438;-72
2022/05/18 04:18:06;;;;;;;0.15;0.15;;;17.30;99.90;;;;;;4971636;28;20027;-73
2022/05/18 04:20:32;;;;;;;0.63;0.63;;;17.30;99.90;;;;;;4952033;28;20597;-73
2022/05/18 04:22:58;;;;;;;0.95;0.75;;;17.20;99.90;;;;;;4973589;28;20102;-74
2022/05/18 04:25:27;;;;;;;0.30;0.15;;;17.20;99.90;;;;;;4990828;28;20045;-74
2022/05/18 04:27:54;;;;;;;0.22;0.20;;;17.20;99.90;;;;;;4990363;28;20113;-79
2022/05/18 04:30:24;;;;;;;1.90;1.73;;;17.20;99.90;;;;;;4990433;28;20080;-73
2022/05/18 04:32:51;;;;;;;0.60;0.60;;;17.20;99.90;;;;;;4973179;28;20031;-74
2022/05/18 04:35:21;;;;;;;0.28;0.28;;;17.20;99.90;;;;;;4973315;28;20092;-73
2022/05/18 04:37:47;;;;;;;3.10;2.23;;;17.30;99.90;;;;;;4991222;28;20026;-73
2022/05/18 04:40:13;;;;;;;0.13;0.13;;;17.30;99.90;;;;;;4989119;28;20623;-73
2022/05/18 04:42:39;;;;;;;0.38;0.38;;;17.10;99.90;;;;;;4994522;28;20100;-73
2022/05/18 04:45:08;;;;;;;0.00;0.00;;;17.10;99.90;;;;;;4993100;28;20034;-73
2022/05/18 04:47:34;;;;;;;0.50;0.45;;;17.10;99.90;;;;;;4994358;28;20037;-74
2022/05/18 04:50:00;;;;;;;1.20;1.00;;;16.90;99.90;;;;;;4993937;28;20034;-74
2022/05/18 04:52:26;;;;;;;0.70;0.70;;;17.00;99.90;;;;;;4992795;28;20105;-73
2022/05/18 04:54:52;;;;;;;0.20;0.20;;;17.10;99.90;;;;;;4992962;28;20497;-72
2022/05/18 04:57:18;;;;;;;0.10;0.10;;;16.90;99.90;;;;;;4994548;28;20121;-67
2022/05/18 04:59:45;;;;;;;1.58;1.45;;;16.90;99.90;;;;;;4990743;28;20036;-61
2022/05/18 05:02:11;;;;;;;0.10;0.10;;;16.80;99.90;;;;;;4994200;28;20050;-61
2022/05/18 05:04:37;;;;;;;0.00;0.00;;;16.70;99.90;;;;;;4993191;28;20390;-61
2022/05/18 05:07:04;;;;;;;3.40;0.82;;;16.80;99.90;;;;;;4993907;28;20109;-61
2022/05/18 05:09:30;;;;;;;0.10;0.10;;;17.00;99.90;;;;;;4976065;28;20034;-61
2022/05/18 05:11:56;;;;;;;0.03;0.03;;;17.10;99.90;;;;;;4973211;28;20047;-62
2022/05/18 05:14:23;;;;;;;0.47;0.47;;;17.20;99.90;;;;;;4994156;28;20471;-62
2022/05/18 05:16:54;;;;;;;0.08;0.05;;;17.20;99.90;;;;;;4957227;28;20085;-61
2022/05/18 05:19:20;;;;;;;0.35;0.35;;;17.30;99.90;;;;;;4957538;28;20041;-62
2022/05/18 05:21:46;;;;;;;0.98;0.90;;;17.40;99.90;;;;;;4974247;28;20027;-61
2022/05/18 05:24:14;;;;;;;0.75;0.70;;;17.50;99.90;;;;;;4974095;28;20042;-61
2022/05/18 05:26:41;;;;;;;0.20;0.20;;;17.50;99.90;;;;;;4957225;28;20031;-61
2022/05/18 05:29:08;;;;;;;0.60;0.50;;;17.70;99.90;;;;;;4974045;28;20038;-61
2022/05/18 05:31:35;;;;;;;0.00;0.00;;;17.80;99.90;;;;;;4974045;28;20454;-61
2022/05/18 05:34:01;;;;;;;4.20;2.30;;;17.90;99.90;;;;;;4956698;28;20033;-61
2022/05/18 05:36:28;;;;;;;0.45;0.45;;;18.00;99.90;;;;;;4972162;28;20386;-61
2022/05/18 05:38:54;;;;;;;0.10;0.10;;;18.10;99.90;;;;;;4992613;28;20022;-61
2022/05/18 05:41:20;;;;;;;0.28;0.25;;;18.20;99.90;;;;;;4993631;28;20041;-61
2022/05/18 05:43:46;;;;;;;0.20;0.20;;;18.30;99.90;;;;;;4993330;28;20065;-61
2022/05/18 05:46:13;;;;;;;0.08;0.08;;;18.40;99.90;;;;;;4993449;28;20057;-61
2022/05/18 05:48:41;;;;;;;1.05;1.00;;;18.60;99.90;;;;;;4992039;28;20047;-61
2022/05/18 05:51:12;;;;;;;39.25;1.15;;;18.80;99.90;;;;;;4991961;28;20038;-61
2022/05/18 05:53:47;;;;;;;0.93;0.57;;;18.80;99.90;;;;;;4992804;28;20092;-60
2022/05/18 05:56:15;;;;;;;0.00;0.00;;;18.90;99.90;;;;;;4992585;28;20281;-61
2022/05/18 05:58:43;;;;;;;0.25;0.20;;;19.10;99.90;;;;;;4991869;28;20026;-60
2022/05/18 06:01:12;;;;;;;0.32;0.22;;;19.20;99.90;;;;;;4992435;28;20023;-61
2022/05/18 06:03:40;;;;;;;0.47;0.47;;;19.30;99.90;;;;;;4992466;28;20571;-61
2022/05/18 06:06:08;;;;;;;2.80;1.23;;;19.40;99.90;;;;;;4977693;28;20034;-61
2022/05/18 06:08:33;;;;;;;1.50;1.27;;;19.50;99.90;;;;;;4993082;28;20041;-61
2022/05/18 06:11:00;;;;;;;12.52;0.75;;;19.60;99.90;;;;;;4992838;28;20038;-61
2022/05/18 06:13:27;;;;;;;0.68;0.68;;;19.60;99.90;;;;;;4975529;28;20478;-61
2022/05/18 06:15:53;;;;;;;1.40;0.82;;;19.50;99.90;;;;;;4993205;28;20031;-61
2022/05/18 06:18:19;;;;;;;0.65;0.65;;;19.70;99.90;;;;;;4992827;28;20394;-61
2022/05/18 06:20:47;;;;;;;1.17;0.68;;;19.80;99.90;;;;;;4992681;28;20029;-61
2022/05/18 06:23:14;;;;;;;9.23;7.18;;;19.70;99.90;;;;;;4992804;28;20030;-61
2022/05/18 06:25:40;;;;;;;1.45;0.90;;;19.80;99.90;;;;;;4993019;28;20081;-62
2022/05/18 06:28:08;;;;;;;0.38;0.38;;;19.90;99.90;;;;;;4992342;28;20026;-61
2022/05/18 06:30:34;;;;;;;0.47;0.47;;;20.00;99.90;;;;;;4992361;28;20042;-62
2022/05/18 06:33:00;;;;;;;2.63;0.90;;;20.10;99.90;;;;;;4992547;28;20038;-61
2022/05/18 06:35:26;;;;;;;1.98;1.05;;;20.20;99.90;;;;;;4992587;28;20364;-61
2022/05/18 06:37:52;;;;;;;0.03;0.03;;;20.40;99.90;;;;;;4992879;28;20054;-61
2022/05/18 06:40:18;;;;;;;0.95;0.57;;;20.50;99.90;;;;;;4992582;28;20026;-61
2022/05/18 06:42:45;;;;;;;3.53;0.80;;;20.60;99.90;;;;;;4991526;28;20490;-62
2022/05/18 06:45:13;;;;;;;1.70;0.30;;;20.80;99.90;;;;;;4992757;28;20537;-69
2022/05/18 06:47:39;;;;;;;0.68;0.65;;;20.90;99.90;;;;;;4990898;28;20096;-69
2022/05/18 06:50:09;;;;;;;0.25;0.25;;;20.80;99.90;;;;;;4992449;28;20105;-68
2022/05/18 06:52:35;;;;;;;0.10;0.10;;;20.90;99.90;;;;;;4991196;28;20039;-69
2022/05/18 06:55:01;;;;;;;1.38;1.27;;;21.00;99.90;;;;;;4971310;28;20534;-68
2022/05/18 06:57:27;;;;;;;1.83;1.27;;;21.00;99.90;;;;;;4955187;28;20122;-68
2022/05/18 06:59:52;;;;;;;0.10;0.10;;;21.00;99.90;;;;;;4972697;28;20102;-68
2022/05/18 07:02:18;;;;;;;0.65;0.63;;;21.20;99.90;;;;;;4981116;28;20503;-68
2022/05/18 07:04:44;;;;;;;0.30;0.30;;;21.30;99.90;;;;;;4991880;28;20049;-68
2022/05/18 07:07:10;;;;;;;2.35;0.98;;;21.50;99.90;;;;;;4992291;28;20030;-68
2022/05/18 07:09:36;;;;;;;0.05;0.05;;;21.50;99.90;;;;;;4990400;28;20027;-68
2022/05/18 07:12:02;;;;;;;0.22;0.15;;;21.50;99.90;;;;;;4974474;28;20494;-69
2022/05/18 07:14:29;;;;;;;1.02;0.95;;;21.60;99.90;;;;;;4974208;28;20398;-68
2022/05/18 07:16:57;;;;;;;0.30;0.30;;;21.70;99.90;;;;;;4974613;28;20088;-69
2022/05/18 07:19:24;;;;;;;1.40;0.55;;;21.80;99.90;;;;;;4973992;28;20105;-68
2022/05/18 07:21:50;;;;;;;0.40;0.38;;;21.90;99.90;;;;;;4991916;28;20058;-68
2022/05/18 07:24:17;;;;;;;0.32;0.30;;;22.00;99.90;;;;;;4992103;28;20073;-68
2022/05/18 07:26:44;;;;;;;0.20;0.17;;;22.10;99.90;;;;;;4991953;28;20023;-68
2022/05/18 07:29:10;;;;;;;0.98;0.90;;;22.20;99.90;;;;;;4973801;28;20096;-68
2022/05/18 07:34:43;;;;;;;0.65;0.63;;;22.20;99.90;;;;;;4919984;29;20523;-68
2022/05/18 07:37:09;;;;;;;0.17;0.13;;;22.40;99.90;;;;;;4948428;28;20053;-68
2022/05/18 07:39:36;;;;;;;0.22;0.20;;;22.50;99.90;;;;;;4970681;28;20141;-67
2022/05/18 07:42:05;;;;;;;0.13;0.10;;;22.60;99.90;;;;;;4971113;28;20035;-68
2022/05/18 07:44:32;;;;;;;0.00;0.00;;;22.70;99.70;;;;;;4971150;28;20062;-68
2022/05/18 07:46:58;;;;;;;0.05;0.03;;;22.90;98.10;;;;;;4971212;28;20042;-68
2022/05/18 07:49:24;;;;;;;0.22;0.22;;;23.00;97.80;;;;;;4971821;28;20185;-68
2022/05/18 07:51:50;;;;;;;0.03;0.03;;;23.10;97.60;;;;;;4970774;28;20538;-68
2022/05/18 07:54:15;;;;;;;0.00;0.00;;;23.20;96.00;;;;;;4971771;28;20023;-68
2022/05/18 07:56:42;;;;;;;8.93;1.52;;;23.30;96.30;;;;;;4972219;28;20166;-68
2022/05/18 07:59:11;;;;;;;0.10;0.10;;;23.30;96.80;;;;;;4970417;28;20031;-68
2022/05/18 08:01:39;;;;;;;0.15;0.10;;;23.40;95.20;;;;;;4970433;28;20104;-68
2022/05/18 08:04:05;;;;;;;2.03;1.23;;;23.50;95.50;;;;;;4971765;28;20086;-68
2022/05/18 08:06:32;;;;;;;1.77;0.70;;;23.50;95.60;;;;;;4970326;28;20081;-66
2022/05/18 08:08:57;;;;;;;0.00;0.00;;;23.70;93.60;;;;;;4970575;28;20030;-67
2022/05/18 08:16:52;;;;;;;0.10;0.10;;;23.90;93.70;;;;;;4990058;28;20466;-68
2022/05/18 08:19:19;;;;;;;0.47;0.35;;;24.00;92.80;;;;;;4989489;28;20085;-68
2022/05/18 08:21:47;;;;;;;0.03;0.03;;;23.90;92.80;;;;;;4991231;28;20026;-68
2022/05/18 08:24:13;;;;;;;0.40;0.40;;;24.00;93.60;;;;;;4989860;28;20482;-69
2022/05/18 08:26:41;;;;;;;0.55;0.13;;;23.80;94.10;;;;;;4991127;28;20038;-68
2022/05/18 08:29:07;;;;;;;0.40;0.20;;;24.00;93.60;;;;;;4990379;28;20058;-68
2022/05/18 08:31:33;;;;;;;0.20;0.13;;;24.10;93.20;;;;;;4989623;28;20042;-69
2022/05/18 08:33:59;;;;;;;0.20;0.20;;;24.20;92.30;;;;;;4991260;28;20118;-69
2022/05/18 08:36:26;;;;;;;0.88;0.40;;;24.20;92.40;;;;;;4975808;28;20038;-69
2022/05/18 08:38:54;;;;;;;0.00;0.00;;;24.20;92.90;;;;;;4971212;28;20027;-69
2022/05/18 08:41:24;;;;;;;0.30;0.30;;;24.00;93.10;;;;;;4971547;28;20109;-68
2022/05/18 08:43:55;;;;;;;0.15;0.15;;;24.00;93.60;;;;;;4971555;28;20034;-68
2022/05/18 08:46:54;;;;;;;0.00;0.00;;;24.00;93.20;;;;;;4970272;28;20067;-69
2022/05/18 08:49:32;;;;;;;0.20;0.20;;;24.10;93.10;;;;;;4971132;28;20479;-68
2022/05/18 08:52:33;;;;;;;1.15;0.63;;;24.20;92.80;;;;;;4971719;28;20039;-69
2022/05/18 08:55:36;;;;;;;1.05;0.40;;;24.30;93.60;;;;;;4956158;28;20039;-69
2022/05/18 08:58:06;;;;;;;0.00;0.00;;;24.50;93.10;;;;;;4971443;28;20034;-69
2022/05/18 09:00:59;;;;;;;7.68;1.65;;;24.50;92.50;;;;;;4969988;28;20416;-69
2022/05/18 09:03:47;;;;;;;1.40;0.20;;;24.60;92.40;;;;;;4969884;28;20443;-69
2022/05/18 09:06:47;;;;;;;0.10;0.10;;;24.70;92.80;;;;;;4970167;28;20050;-68
2022/05/18 09:12:09;;;;;;;0.10;0.10;;;25.00;92.00;;;;;;4969954;28;20471;-69
2022/05/18 09:14:40;;;;;;;2.22;0.32;;;25.10;92.00;;;;;;4986082;28;20379;-69
2022/05/18 09:17:43;;;;;;;0.10;0.10;;;25.20;91.60;;;;;;4970260;28;20030;-69
2022/05/18 09:20:21;;;;;;;0.20;0.17;;;25.30;91.50;;;;;;4971224;28;20031;-69
2022/05/18 09:22:56;;;;;;;0.20;0.10;;;25.50;91.20;;;;;;4971275;28;20038;-69
2022/05/18 09:26:06;;;;;;;0.10;0.10;;;25.60;91.20;;;;;;4971182;28;20043;-69
2022/05/18 09:28:54;;;;;;;0.30;0.30;;;25.50;91.50;;;;;;4974622;28;20031;-69
2022/05/18 09:31:37;;;;;;;0.20;0.20;;;25.50;91.00;;;;;;4974438;28;20038;-68
2022/05/18 09:34:24;;;;;;;0.25;0.25;;;25.80;91.10;;;;;;4974623;28;20073;-69
2022/05/18 09:37:28;;;;;;;0.35;0.25;;;25.90;90.40;;;;;;4974749;28;20518;-69
2022/05/18 09:40:09;;;;;;;0.88;0.63;;;26.00;90.40;;;;;;4974548;28;20121;-69
2022/05/18 09:42:47;;;;;;;1.92;0.32;;;26.40;90.30;;;;;;4972972;28;20031;-68
2022/05/18 09:45:18;;;;;;;0.00;0.00;;;26.60;88.30;;;;;;4959717;28;20050;-68
2022/05/18 09:48:22;;;;;;;1.85;0.65;;;26.40;87.30;;;;;;4974646;28;20509;-68
2022/05/18 09:50:50;;;;;;;0.05;0.05;;;26.30;88.10;;;;;;4970348;28;20043;-68
2022/05/18 09:53:17;;;;;;;0.17;0.17;;;26.50;86.40;;;;;;4973138;28;20026;-67
2022/05/18 09:55:49;;;;;;;0.00;0.00;;;26.40;86.50;;;;;;4973164;28;20062;-68
2022/05/18 09:58:29;;;;;;;0.68;0.65;;;26.30;85.10;;;;;;4973121;28;20460;-68
2022/05/18 10:10:20;;;;;;;0.22;0.15;;;27.20;81.00;;;;;;4954463;29;20110;-67
2022/05/18 10:13:07;;;;;;;0.90;0.82;;;27.50;80.50;;;;;;4956609;28;20039;-67
2022/05/18 10:15:48;;;;;;;0.00;0.00;;;27.40;77.10;;;;;;4954413;29;20035;-68
2022/05/18 10:18:51;;;;;;;0.10;0.10;;;27.20;75.20;;;;;;4954372;28;20035;-68
2022/05/18 10:21:18;;;;;;;0.38;0.28;;;27.30;79.80;;;;;;4959279;28;20061;-68
2022/05/18 10:24:06;;;;;;;0.00;0.00;;;27.30;80.80;;;;;;4974302;28;20612;-68
2022/05/18 10:26:41;;;;;;;0.30;0.00;;;27.30;80.40;;;;;;4972524;28;20043;-68
2022/05/18 10:29:23;;;;;;;0.00;0.00;;;27.70;77.20;;;;;;4973266;28;20027;-69
2022/05/18 10:32:24;;;;;;;0.00;0.00;;;27.70;76.00;;;;;;4973805;28;20026;-68
2022/05/18 10:34:53;;;;;;;0.35;0.35;;;28.20;75.90;;;;;;4964994;28;20043;-67
2022/05/18 10:37:48;;;;;;;0.00;0.00;;;27.90;74.80;;;;;;4968608;28;20019;-67
2022/05/18 10:40:19;;;;;;;0.00;0.00;;;28.40;74.70;;;;;;4951755;29;20055;-68
2022/05/18 10:43:11;;;;;;;0.20;0.15;;;28.20;75.00;;;;;;4953793;28;20403;-67
2022/05/18 10:45:37;;;;;;;0.10;0.10;;;28.30;76.10;;;;;;4966750;28;20403;-68
2022/05/18 10:48:27;;;;;;;0.03;0.03;;;27.80;78.20;;;;;;4953820;28;20027;-68
2022/05/18 10:51:38;;;;;;;0.03;0.03;;;27.90;77.30;;;;;;4968693;28;20035;-69
2022/05/18 10:54:29;;;;;;;0.47;0.43;;;28.40;76.20;;;;;;4953869;29;20047;-68
2022/05/18 10:57:16;;;;;;;0.90;0.50;;;28.50;76.80;;;;;;4953896;29;20039;-68
2022/05/18 11:00:05;;;;;;;0.00;0.00;;;28.10;76.30;;;;;;4953204;28;20039;-68
2022/05/18 11:02:50;;;;;;;0.00;0.00;;;28.00;78.30;;;;;;4968387;28;20601;-69
2022/05/18 11:05:16;;;;;;;0.17;0.10;;;28.30;75.70;;;;;;4972820;28;20092;-69
2022/05/18 11:07:43;;;;;;;0.00;0.00;;;28.40;74.50;;;;;;4972864;28;20430;-69
2022/05/18 11:10:10;;;;;;;0.00;0.00;;;28.50;73.10;;;;;;4955052;28;20046;-68
2022/05/18 11:13:02;;;;;;;0.15;0.15;;;28.30;73.60;;;;;;4971112;28;20038;-69
2022/05/18 11:15:58;;;;;;;0.00;0.00;;;28.60;73.80;;;;;;4971613;28;20554;-68
2022/05/18 11:18:52;;;;;;;0.85;0.22;;;28.70;72.00;;;;;;4971535;28;20042;-69
2022/05/18 11:21:54;;;;;;;0.45;0.43;;;28.60;72.40;;;;;;4956020;28;20027;-68
2022/05/18 11:25:04;;;;;;;0.30;0.30;;;28.70;73.70;;;;;;4972511;28;20030;-69
2022/05/18 11:28:22;;;;;;;0.10;0.10;;;28.70;72.30;;;;;;4971533;28;20113;-69
2022/05/18 11:31:24;;;;;;;0.00;0.00;;;29.10;72.90;;;;;;4962319;28;20119;-69
2022/05/18 11:34:40;;;;;;;0.95;0.47;;;29.70;68.90;;;;;;4972428;28;20042;-69
2022/05/18 11:37:32;;;;;;;0.03;0.00;;;29.30;70.60;;;;;;4972364;28;20041;-69
2022/05/18 11:40:27;;;;;;;0.32;0.30;;;29.30;67.80;;;;;;4972266;28;20019;-69
2022/05/18 11:43:28;;;;;;;0.13;0.10;;;29.80;69.30;;;;;;4972185;28;20030;-68
2022/05/18 11:46:31;;;;;;;;;;;29.80;71.20;;;;;;4971494;28;20031;-69
2022/05/18 11:49:28;;;;;;;0.25;0.17;;;29.40;69.30;;;;;;4972028;28;20389;-70
2022/05/18 11:52:17;;;;;;;0.30;0.30;;;29.10;68.40;;;;;;4972200;28;20035;-70
2022/05/18 11:55:17;;;;;;;0.00;0.00;;;29.30;68.30;;;;;;4972126;28;20503;-69
2022/05/18 11:58:16;;;;;;;0.00;0.00;;;29.40;65.90;;;;;;4970775;28;20041;-69
2022/05/18 12:01:11;;;;;;;0.05;0.05;;;30.10;66.20;;;;;;4961858;28;20034;-69
2022/05/18 12:04:32;;;;;;;0.00;0.00;;;29.70;63.00;;;;;;4970787;28;20495;-69
2022/05/18 12:07:30;;;;;;;6.25;1.98;;;29.50;65.40;;;;;;4971649;28;20094;-69
2022/05/18 12:10:37;;;;;;;0.00;0.00;;;29.80;66.30;;;;;;4955560;28;20038;-69
2022/05/18 12:13:32;;;;;;;0.17;0.10;;;30.30;66.60;;;;;;4950524;28;20110;-69
2022/05/18 12:16:23;;;;;;;0.00;0.00;;;30.10;65.90;;;;;;4951043;29;20031;-69
2022/05/18 12:19:31;;;;;;;0.00;0.00;;;29.70;66.60;;;;;;4950517;29;20039;-69
2022/05/18 12:22:06;;;;;;;0.05;0.00;;;30.20;65.00;;;;;;4979715;28;20026;-69
2022/05/18 12:24:33;;;;;;;0.00;0.00;;;30.50;63.10;;;;;;4970169;28;20383;-69
2022/05/18 12:26:59;;;;;;;0.00;0.00;;;30.40;61.80;;;;;;4970642;28;20105;-68
2022/05/18 12:29:26;;;;;;;0.05;0.05;;;30.40;61.60;;;;;;4970033;28;20030;-68
2022/05/18 12:31:56;;;;;;;0.22;0.20;;;30.10;62.00;;;;;;4970115;28;20479;-68
2022/05/18 12:34:34;;;;;;;0.40;0.22;;;31.00;62.00;;;;;;4970289;28;20121;-69
2022/05/18 12:41:11;;;;;;;0.00;0.00;;;30.50;61.50;;;;;;4970599;28;20115;-69
2022/05/18 12:43:44;;;;;;;0.00;0.00;;;30.40;63.30;;;;;;4970233;28;20151;-69
2022/05/18 12:46:14;;;;;;;0.30;0.10;;;30.70;61.30;;;;;;4971351;28;20054;-69
2022/05/18 12:48:59;;;;;;;0.38;0.25;;;31.00;59.70;;;;;;4953927;28;20126;-69
2022/05/18 12:51:27;;;;;;;0.17;0.00;;;31.00;59.90;;;;;;4971365;28;20034;-69
2022/05/18 12:54:33;;;;;;;0.00;0.00;;;30.90;61.20;;;;;;4959749;28;20042;-69
2022/05/18 12:57:05;;;;;;;0.10;0.10;;;30.70;61.10;;;;;;4971504;28;20039;-67
2022/05/18 12:59:44;;;;;;;0.32;0.08;;;30.90;60.90;;;;;;4970613;28;20483;-68
2022/05/18 13:02:36;;;;;;;0.10;0.10;;;31.20;61.60;;;;;;4972982;28;20039;-69
2022/05/18 13:05:31;;;;;;;0.00;0.00;;;31.00;60.50;;;;;;4977014;28;20077;-70
2022/05/18 13:08:24;;;;;;;0.00;0.00;;;31.00;60.30;;;;;;4973471;28;20046;-68
2022/05/18 13:11:28;;;;;;;0.00;0.00;;;31.30;60.40;;;;;;4972671;28;20055;-67
2022/05/18 13:14:01;;;;;;;0.05;0.05;;;32.10;59.40;;;;;;4975235;28;20088;-68
2022/05/18 13:16:39;;;;;;;0.00;0.00;;;32.80;58.30;;;;;;4975635;28;20053;-69
2022/05/18 13:19:19;;;;;;;0.00;0.00;;;32.00;58.00;;;;;;4974533;28;20073;-69
2022/05/18 13:21:59;;;;;;;0.03;0.03;;;32.00;59.40;;;;;;4973900;28;20030;-69
2022/05/18 13:24:37;;;;;;;0.00;0.00;;;32.30;57.70;;;;;;4974862;28;20278;-69
2022/05/18 13:27:20;;;;;;;0.05;0.05;;;32.30;57.70;;;;;;4974763;28;20065;-69
2022/05/18 13:29:52;;;;;;;0.00;0.00;;;32.30;58.90;;;;;;4973209;28;20023;-68
2022/05/18 13:32:19;;;;;;;0.00;0.00;;;31.40;58.40;;;;;;4973535;28;20046;-69
2022/05/18 13:34:52;;;;;;;0.00;0.00;;;32.30;57.90;;;;;;4973415;28;20027;-68
2022/05/18 13:37:20;;;;;;;0.00;0.00;;;32.30;57.00;;;;;;4973457;28;20125;-69
2022/05/18 13:39:49;;;;;;;0.00;0.00;;;31.90;55.80;;;;;;4974189;28;20023;-69
2022/05/18 13:42:20;;;;;;;0.03;0.03;;;32.50;55.70;;;;;;4973123;28;20042;-69
2022/05/18 13:44:52;;;;;;;0.05;0.05;;;32.70;55.30;;;;;;4974426;28;20037;-69
2022/05/18 13:47:48;;;;;;;10.27;1.98;;;33.40;54.50;;;;;;4973109;28;20522;-68
2022/05/18 13:50:42;;;;;;;0.98;0.55;;;33.20;55.20;;;;;;4973902;28;20049;-68